sensor_id;sensor_type;location;lat;lon;timestamp;temperature;humidity
34201;DHT22;20469;55.638;37.670;2023-05-16T00:02:01;12.00;44.70
34201;DHT22;20469;55.638;37.670;2023-05-16T00:04:29;11.80;37.80
34201;DHT22;20469;55.638;37.670;2023-05-16T00:06:59;11.90;48.00
34201;DHT22;20469;55.638;37.670;2023-05-16T00:09:26;11.70;34.10
34201;DHT22;20469;55.638;37.670;2023-05-16T00:11:53;11.60;42.20
34201;DHT22;20469;55.638;37.670;2023-05-16T00:14:20;11.70;49.10
34201;DHT22;20469;55.638;37.670;2023-05-16T00:16:47;11.70;46.80
34201;DHT22;20469;55.638;37.670;2023-05-16T00:19:14;11.70;43.70
34201;DHT22;20469;55.638;37.670;2023-05-16T00:21:42;11.70;45.10
34201;DHT22;20469;55.638;37.670;2023-05-16T00:24:10;11.80;39.90
34201;DHT22;20469;55.638;37.670;2023-05-16T00:26:37;11.60;41.30
34201;DHT22;20469;55.638;37.670;2023-05-16T00:29:05;11.60;46.00
34201;DHT22;20469;55.638;37.670;2023-05-16T00:31:33;11.60;31.20
34201;DHT22;20469;55.638;37.670;2023-05-16T00:34:00;11.60;12.70
34201;DHT22;20469;55.638;37.670;2023-05-16T00:36:27;11.60;7.80
34201;DHT22;20469;55.638;37.670;2023-05-16T00:38:55;11.80;1.00
34201;DHT22;20469;55.638;37.670;2023-05-16T00:41:22;11.80;1.00
34201;DHT22;20469;55.638;37.670;2023-05-16T00:43:49;11.80;1.00
34201;DHT22;20469;55.638;37.670;2023-05-16T00:46:16;11.80;1.00
34201;DHT22;20469;55.638;37.670;2023-05-16T00:48:44;11.70;1.00
34201;DHT22;20469;55.638;37.670;2023-05-16T00:51:11;11.70;1.00
34201;DHT22;20469;55.638;37.670;2023-05-16T00:53:38;11.60;3.30
34201;DHT22;20469;55.638;37.670;2023-05-16T00:56:06;11.60;11.30
34201;DHT22;20469;55.638;37.670;2023-05-16T00:58:33;11.50;7.30
34201;DHT22;20469;55.638;37.670;2023-05-16T01:01:00;11.50;8.30
34201;DHT22;20469;55.638;37.670;2023-05-16T01:03:30;11.40;8.70
34201;DHT22;20469;55.638;37.670;2023-05-16T01:05:57;11.40;19.40
34201;DHT22;20469;55.638;37.670;2023-05-16T01:08:25;11.30;29.30
34201;DHT22;20469;55.638;37.670;2023-05-16T01:13:35;11.40;29.20
34201;DHT22;20469;55.638;37.670;2023-05-16T01:16:09;11.30;34.60
34201;DHT22;20469;55.638;37.670;2023-05-16T01:18:51;11.20;35.20
34201;DHT22;20469;55.638;37.670;2023-05-16T01:21:44;11.20;20.50
34201;DHT22;20469;55.638;37.670;2023-05-16T01:24:32;11.30;4.50
34201;DHT22;20469;55.638;37.670;2023-05-16T01:27:02;11.40;1.00
34201;DHT22;20469;55.638;37.670;2023-05-16T01:29:31;11.40;1.00
34201;DHT22;20469;55.638;37.670;2023-05-16T01:31:58;11.30;1.00
34201;DHT22;20469;55.638;37.670;2023-05-16T01:34:25;11.30;1.00
34201;DHT22;20469;55.638;37.670;2023-05-16T01:37:13;11.10;1.00
34201;DHT22;20469;55.638;37.670;2023-05-16T01:39:58;11.30;1.00
34201;DHT22;20469;55.638;37.670;2023-05-16T01:42:33;11.30;1.00
34201;DHT22;20469;55.638;37.670;2023-05-16T01:48:16;11.10;10.90
34201;DHT22;20469;55.638;37.670;2023-05-16T01:50:53;11.10;18.70
34201;DHT22;20469;55.638;37.670;2023-05-16T01:53:30;11.20;22.90
34201;DHT22;20469;55.638;37.670;2023-05-16T01:56:00;11.00;22.90
34201;DHT22;20469;55.638;37.670;2023-05-16T01:58:32;11.10;32.20
34201;DHT22;20469;55.638;37.670;2023-05-16T02:01:01;11.20;36.30
34201;DHT22;20469;55.638;37.670;2023-05-16T02:03:33;11.10;39.10
34201;DHT22;20469;55.638;37.670;2023-05-16T02:06:00;11.10;45.80
34201;DHT22;20469;55.638;37.670;2023-05-16T02:08:28;11.20;37.50
34201;DHT22;20469;55.638;37.670;2023-05-16T02:10:55;11.20;33.10
34201;DHT22;20469;55.638;37.670;2023-05-16T02:13:23;11.30;18.60
34201;DHT22;20469;55.638;37.670;2023-05-16T02:15:51;11.40;14.50
34201;DHT22;20469;55.638;37.670;2023-05-16T02:18:19;11.30;6.40
34201;DHT22;20469;55.638;37.670;2023-05-16T02:20:46;11.60;1.00
34201;DHT22;20469;55.638;37.670;2023-05-16T02:23:13;11.40;1.00
34201;DHT22;20469;55.638;37.670;2023-05-16T02:25:41;11.30;2.50
34201;DHT22;20469;55.638;37.670;2023-05-16T02:28:08;11.30;14.30
34201;DHT22;20469;55.638;37.670;2023-05-16T02:30:35;11.40;23.20
34201;DHT22;20469;55.638;37.670;2023-05-16T02:33:03;11.50;29.90
34201;DHT22;20469;55.638;37.670;2023-05-16T02:35:30;11.60;32.30
34201;DHT22;20469;55.638;37.670;2023-05-16T02:37:57;11.50;26.50
34201;DHT22;20469;55.638;37.670;2023-05-16T02:40:24;11.50;31.00
34201;DHT22;20469;55.638;37.670;2023-05-16T02:42:52;11.40;34.00
34201;DHT22;20469;55.638;37.670;2023-05-16T02:45:20;11.50;45.90
34201;DHT22;20469;55.638;37.670;2023-05-16T02:47:47;11.50;47.20
34201;DHT22;20469;55.638;37.670;2023-05-16T02:50:14;11.80;47.00
34201;DHT22;20469;55.638;37.670;2023-05-16T02:52:41;11.80;28.30
34201;DHT22;20469;55.638;37.670;2023-05-16T02:55:09;12.00;1.00
34201;DHT22;20469;55.638;37.670;2023-05-16T02:57:41;12.10;1.00
34201;DHT22;20469;55.638;37.670;2023-05-16T03:00:08;12.30;1.00
34201;DHT22;20469;55.638;37.670;2023-05-16T03:02:37;12.30;1.00
34201;DHT22;20469;55.638;37.670;2023-05-16T03:05:05;12.30;1.00
34201;DHT22;20469;55.638;37.670;2023-05-16T03:07:32;12.20;1.00
34201;DHT22;20469;55.638;37.670;2023-05-16T03:10:00;12.30;1.00
34201;DHT22;20469;55.638;37.670;2023-05-16T03:12:29;12.20;1.00
34201;DHT22;20469;55.638;37.670;2023-05-16T03:14:56;12.50;1.00
34201;DHT22;20469;55.638;37.670;2023-05-16T03:17:23;12.70;1.00
34201;DHT22;20469;55.638;37.670;2023-05-16T03:19:51;12.80;1.00
34201;DHT22;20469;55.638;37.670;2023-05-16T03:22:18;12.80;1.00
34201;DHT22;20469;55.638;37.670;2023-05-16T03:24:45;12.80;1.00
34201;DHT22;20469;55.638;37.670;2023-05-16T03:27:13;13.00;1.00
34201;DHT22;20469;55.638;37.670;2023-05-16T03:29:40;13.00;1.00
34201;DHT22;20469;55.638;37.670;2023-05-16T03:32:09;13.10;1.00
34201;DHT22;20469;55.638;37.670;2023-05-16T03:34:37;13.30;1.00
34201;DHT22;20469;55.638;37.670;2023-05-16T03:37:04;13.30;1.00
34201;DHT22;20469;55.638;37.670;2023-05-16T03:39:31;13.20;1.00
34201;DHT22;20469;55.638;37.670;2023-05-16T03:41:58;13.30;1.00
34201;DHT22;20469;55.638;37.670;2023-05-16T03:44:26;13.60;1.00
34201;DHT22;20469;55.638;37.670;2023-05-16T03:46:53;13.60;1.00
34201;DHT22;20469;55.638;37.670;2023-05-16T03:52:09;13.90;1.00
34201;DHT22;20469;55.638;37.670;2023-05-16T03:54:56;13.80;1.00
34201;DHT22;20469;55.638;37.670;2023-05-16T03:57:23;13.80;1.00
34201;DHT22;20469;55.638;37.670;2023-05-16T03:59:50;13.80;1.00
34201;DHT22;20469;55.638;37.670;2023-05-16T04:02:17;13.90;1.00
34201;DHT22;20469;55.638;37.670;2023-05-16T04:04:46;14.20;1.00
34201;DHT22;20469;55.638;37.670;2023-05-16T04:07:13;14.20;1.00
34201;DHT22;20469;55.638;37.670;2023-05-16T04:12:29;14.30;1.00
34201;DHT22;20469;55.638;37.670;2023-05-16T04:14:56;14.30;1.00
34201;DHT22;20469;55.638;37.670;2023-05-16T04:17:24;14.30;1.00
34201;DHT22;20469;55.638;37.670;2023-05-16T04:19:51;14.50;1.00
34201;DHT22;20469;55.638;37.670;2023-05-16T04:22:21;14.50;1.00
34201;DHT22;20469;55.638;37.670;2023-05-16T04:24:48;14.30;1.00
34201;DHT22;20469;55.638;37.670;2023-05-16T04:27:16;14.40;1.00
34201;DHT22;20469;55.638;37.670;2023-05-16T04:29:43;14.40;1.00
34201;DHT22;20469;55.638;37.670;2023-05-16T04:32:10;14.10;1.00
34201;DHT22;20469;55.638;37.670;2023-05-16T04:34:38;14.30;1.00
34201;DHT22;20469;55.638;37.670;2023-05-16T04:37:06;14.40;1.00
34201;DHT22;20469;55.638;37.670;2023-05-16T04:39:35;14.90;1.00
34201;DHT22;20469;55.638;37.670;2023-05-16T04:42:21;15.00;1.00
34201;DHT22;20469;55.638;37.670;2023-05-16T04:44:48;15.20;1.00
34201;DHT22;20469;55.638;37.670;2023-05-16T04:47:16;15.30;1.00
34201;DHT22;20469;55.638;37.670;2023-05-16T04:49:43;15.20;1.00
34201;DHT22;20469;55.638;37.670;2023-05-16T04:52:10;15.30;1.00
34201;DHT22;20469;55.638;37.670;2023-05-16T04:54:38;15.50;1.00
34201;DHT22;20469;55.638;37.670;2023-05-16T04:59:51;15.40;1.00
34201;DHT22;20469;55.638;37.670;2023-05-16T05:02:19;15.60;1.00
34201;DHT22;20469;55.638;37.670;2023-05-16T05:04:46;15.40;1.00
34201;DHT22;20469;55.638;37.670;2023-05-16T05:07:13;15.20;1.00
34201;DHT22;20469;55.638;37.670;2023-05-16T05:09:41;15.60;1.00
34201;DHT22;20469;55.638;37.670;2023-05-16T05:12:10;15.90;1.00
34201;DHT22;20469;55.638;37.670;2023-05-16T05:14:37;16.00;1.00
34201;DHT22;20469;55.638;37.670;2023-05-16T05:17:04;15.90;1.00
34201;DHT22;20469;55.638;37.670;2023-05-16T05:19:32;15.60;1.00
34201;DHT22;20469;55.638;37.670;2023-05-16T05:21:59;15.80;1.00
34201;DHT22;20469;55.638;37.670;2023-05-16T05:24:27;16.20;1.00
34201;DHT22;20469;55.638;37.670;2023-05-16T05:26:54;15.70;1.00
34201;DHT22;20469;55.638;37.670;2023-05-16T05:29:21;16.30;1.00
34201;DHT22;20469;55.638;37.670;2023-05-16T05:31:49;16.80;1.00
34201;DHT22;20469;55.638;37.670;2023-05-16T05:34:16;17.10;1.00
34201;DHT22;20469;55.638;37.670;2023-05-16T05:36:43;16.70;1.00
34201;DHT22;20469;55.638;37.670;2023-05-16T05:39:10;16.70;1.00
34201;DHT22;20469;55.638;37.670;2023-05-16T05:41:38;16.60;1.00
34201;DHT22;20469;55.638;37.670;2023-05-16T05:44:05;16.60;1.00
34201;DHT22;20469;55.638;37.670;2023-05-16T05:46:32;16.90;1.00
34201;DHT22;20469;55.638;37.670;2023-05-16T05:49:00;17.10;1.00
34201;DHT22;20469;55.638;37.670;2023-05-16T05:51:27;17.60;1.00
34201;DHT22;20469;55.638;37.670;2023-05-16T05:53:55;17.50;1.00
34201;DHT22;20469;55.638;37.670;2023-05-16T05:56:22;17.40;1.00
34201;DHT22;20469;55.638;37.670;2023-05-16T05:58:50;17.20;1.00
34201;DHT22;20469;55.638;37.670;2023-05-16T06:01:18;17.20;1.00
34201;DHT22;20469;55.638;37.670;2023-05-16T06:03:50;16.90;1.00
34201;DHT22;20469;55.638;37.670;2023-05-16T06:06:17;17.00;1.00
34201;DHT22;20469;55.638;37.670;2023-05-16T06:08:45;16.70;1.00
34201;DHT22;20469;55.638;37.670;2023-05-16T06:11:12;17.00;1.00
34201;DHT22;20469;55.638;37.670;2023-05-16T06:13:39;16.80;1.00
34201;DHT22;20469;55.638;37.670;2023-05-16T06:16:07;17.10;1.00
34201;DHT22;20469;55.638;37.670;2023-05-16T06:18:35;17.20;1.00
34201;DHT22;20469;55.638;37.670;2023-05-16T06:21:05;17.60;1.00
34201;DHT22;20469;55.638;37.670;2023-05-16T06:23:32;17.70;1.00
34201;DHT22;20469;55.638;37.670;2023-05-16T06:26:00;18.10;1.00
34201;DHT22;20469;55.638;37.670;2023-05-16T06:28:28;17.80;1.00
34201;DHT22;20469;55.638;37.670;2023-05-16T06:30:56;17.70;1.00
34201;DHT22;20469;55.638;37.670;2023-05-16T06:33:23;17.30;1.00
34201;DHT22;20469;55.638;37.670;2023-05-16T06:35:51;17.30;1.00
34201;DHT22;20469;55.638;37.670;2023-05-16T06:38:18;18.10;1.00
34201;DHT22;20469;55.638;37.670;2023-05-16T06:40:45;18.00;1.00
34201;DHT22;20469;55.638;37.670;2023-05-16T06:43:13;17.50;1.00
34201;DHT22;20469;55.638;37.670;2023-05-16T06:45:40;17.60;1.00
34201;DHT22;20469;55.638;37.670;2023-05-16T06:48:07;17.50;1.00
34201;DHT22;20469;55.638;37.670;2023-05-16T06:50:35;17.70;1.00
34201;DHT22;20469;55.638;37.670;2023-05-16T06:53:02;18.00;1.00
34201;DHT22;20469;55.638;37.670;2023-05-16T06:55:30;18.10;1.00
34201;DHT22;20469;55.638;37.670;2023-05-16T06:57:58;17.90;1.00
34201;DHT22;20469;55.638;37.670;2023-05-16T07:00:25;17.90;1.00
34201;DHT22;20469;55.638;37.670;2023-05-16T07:02:53;17.70;1.00
34201;DHT22;20469;55.638;37.670;2023-05-16T07:05:20;17.90;1.00
34201;DHT22;20469;55.638;37.670;2023-05-16T07:07:47;19.10;1.00
34201;DHT22;20469;55.638;37.670;2023-05-16T07:10:15;18.50;1.00
34201;DHT22;20469;55.638;37.670;2023-05-16T07:12:42;18.60;1.00
34201;DHT22;20469;55.638;37.670;2023-05-16T07:15:10;18.60;1.00
34201;DHT22;20469;55.638;37.670;2023-05-16T07:17:37;18.70;1.00
34201;DHT22;20469;55.638;37.670;2023-05-16T07:20:07;18.50;1.00
34201;DHT22;20469;55.638;37.670;2023-05-16T07:22:37;18.30;1.00
34201;DHT22;20469;55.638;37.670;2023-05-16T07:25:05;18.00;1.00
34201;DHT22;20469;55.638;37.670;2023-05-16T07:27:39;18.30;1.00
34201;DHT22;20469;55.638;37.670;2023-05-16T07:30:12;19.10;1.00
34201;DHT22;20469;55.638;37.670;2023-05-16T07:32:39;19.30;1.00
34201;DHT22;20469;55.638;37.670;2023-05-16T07:35:08;18.50;1.00
34201;DHT22;20469;55.638;37.670;2023-05-16T07:37:35;18.40;1.00
34201;DHT22;20469;55.638;37.670;2023-05-16T07:40:03;18.60;1.00
34201;DHT22;20469;55.638;37.670;2023-05-16T07:42:32;18.50;1.00
34201;DHT22;20469;55.638;37.670;2023-05-16T07:44:59;18.60;1.00
34201;DHT22;20469;55.638;37.670;2023-05-16T07:47:32;19.20;1.00
34201;DHT22;20469;55.638;37.670;2023-05-16T07:49:59;19.40;1.00
34201;DHT22;20469;55.638;37.670;2023-05-16T07:52:26;19.20;1.00
34201;DHT22;20469;55.638;37.670;2023-05-16T07:54:53;19.20;1.00
34201;DHT22;20469;55.638;37.670;2023-05-16T07:57:21;18.90;1.00
34201;DHT22;20469;55.638;37.670;2023-05-16T07:59:51;19.30;1.00
34201;DHT22;20469;55.638;37.670;2023-05-16T08:02:18;19.20;1.00
34201;DHT22;20469;55.638;37.670;2023-05-16T08:04:47;19.60;1.00
34201;DHT22;20469;55.638;37.670;2023-05-16T08:07:16;19.30;1.00
34201;DHT22;20469;55.638;37.670;2023-05-16T08:09:43;19.20;1.00
34201;DHT22;20469;55.638;37.670;2023-05-16T08:12:10;18.90;1.00
34201;DHT22;20469;55.638;37.670;2023-05-16T08:14:37;18.90;1.00
34201;DHT22;20469;55.638;37.670;2023-05-16T08:17:05;19.50;1.00
34201;DHT22;20469;55.638;37.670;2023-05-16T08:19:33;20.30;1.00
34201;DHT22;20469;55.638;37.670;2023-05-16T08:22:00;19.40;1.00
34201;DHT22;20469;55.638;37.670;2023-05-16T08:24:28;19.10;1.00
34201;DHT22;20469;55.638;37.670;2023-05-16T08:26:56;19.10;1.00
34201;DHT22;20469;55.638;37.670;2023-05-16T08:29:23;19.50;1.00
34201;DHT22;20469;55.638;37.670;2023-05-16T08:31:50;19.70;1.00
34201;DHT22;20469;55.638;37.670;2023-05-16T08:34:18;20.10;1.00
34201;DHT22;20469;55.638;37.670;2023-05-16T08:36:45;20.80;1.00
34201;DHT22;20469;55.638;37.670;2023-05-16T08:39:12;20.30;1.00
34201;DHT22;20469;55.638;37.670;2023-05-16T08:41:39;19.40;1.00
34201;DHT22;20469;55.638;37.670;2023-05-16T08:44:07;19.80;1.00
34201;DHT22;20469;55.638;37.670;2023-05-16T08:46:36;19.40;1.00
34201;DHT22;20469;55.638;37.670;2023-05-16T08:49:05;20.00;1.00
34201;DHT22;20469;55.638;37.670;2023-05-16T08:51:34;20.30;1.00
34201;DHT22;20469;55.638;37.670;2023-05-16T08:54:06;20.60;1.00
34201;DHT22;20469;55.638;37.670;2023-05-16T08:56:36;20.30;1.00
34201;DHT22;20469;55.638;37.670;2023-05-16T08:59:04;20.20;1.00
34201;DHT22;20469;55.638;37.670;2023-05-16T09:01:31;20.40;1.00
34201;DHT22;20469;55.638;37.670;2023-05-16T09:03:59;20.00;1.00
34201;DHT22;20469;55.638;37.670;2023-05-16T09:06:27;19.90;1.00
34201;DHT22;20469;55.638;37.670;2023-05-16T09:08:54;21.10;1.00
34201;DHT22;20469;55.638;37.670;2023-05-16T09:11:22;20.80;1.00
34201;DHT22;20469;55.638;37.670;2023-05-16T09:13:49;20.20;1.00
34201;DHT22;20469;55.638;37.670;2023-05-16T09:16:18;22.00;1.00
34201;DHT22;20469;55.638;37.670;2023-05-16T09:18:53;21.30;1.00
34201;DHT22;20469;55.638;37.670;2023-05-16T09:21:22;20.00;1.00
34201;DHT22;20469;55.638;37.670;2023-05-16T09:23:50;20.20;1.00
34201;DHT22;20469;55.638;37.670;2023-05-16T09:26:18;20.50;1.00
34201;DHT22;20469;55.638;37.670;2023-05-16T09:28:45;20.20;1.00
34201;DHT22;20469;55.638;37.670;2023-05-16T09:31:20;21.70;1.00
34201;DHT22;20469;55.638;37.670;2023-05-16T09:33:48;20.80;1.00
34201;DHT22;20469;55.638;37.670;2023-05-16T09:36:34;21.10;1.00
34201;DHT22;20469;55.638;37.670;2023-05-16T09:39:04;20.60;1.00
34201;DHT22;20469;55.638;37.670;2023-05-16T09:41:34;20.30;1.00
34201;DHT22;20469;55.638;37.670;2023-05-16T09:44:05;20.70;1.00
34201;DHT22;20469;55.638;37.670;2023-05-16T09:46:33;20.90;1.00
34201;DHT22;20469;55.638;37.670;2023-05-16T09:49:02;22.20;1.00
34201;DHT22;20469;55.638;37.670;2023-05-16T09:51:29;20.90;1.00
34201;DHT22;20469;55.638;37.670;2023-05-16T09:54:00;21.30;1.00
34201;DHT22;20469;55.638;37.670;2023-05-16T09:56:27;21.70;1.00
34201;DHT22;20469;55.638;37.670;2023-05-16T09:58:56;21.10;1.00
34201;DHT22;20469;55.638;37.670;2023-05-16T10:01:42;22.10;1.00
34201;DHT22;20469;55.638;37.670;2023-05-16T10:04:09;21.40;1.00
34201;DHT22;20469;55.638;37.670;2023-05-16T10:06:41;22.90;1.00
34201;DHT22;20469;55.638;37.670;2023-05-16T10:11:59;23.40;1.00
34201;DHT22;20469;55.638;37.670;2023-05-16T10:14:32;24.90;1.00
34201;DHT22;20469;55.638;37.670;2023-05-16T10:17:05;22.40;1.00
34201;DHT22;20469;55.638;37.670;2023-05-16T10:19:38;23.50;1.00
34201;DHT22;20469;55.638;37.670;2023-05-16T10:22:06;25.50;1.00
34201;DHT22;20469;55.638;37.670;2023-05-16T10:24:43;24.30;1.00
34201;DHT22;20469;55.638;37.670;2023-05-16T10:30:19;21.90;1.00
34201;DHT22;20469;55.638;37.670;2023-05-16T10:32:48;22.40;1.00
34201;DHT22;20469;55.638;37.670;2023-05-16T10:35:16;24.10;1.00
34201;DHT22;20469;55.638;37.670;2023-05-16T10:40:34;24.40;1.00
34201;DHT22;20469;55.638;37.670;2023-05-16T10:43:04;24.20;1.00
34201;DHT22;20469;55.638;37.670;2023-05-16T10:45:32;25.40;1.00
34201;DHT22;20469;55.638;37.670;2023-05-16T10:48:31;24.50;1.00
34201;DHT22;20469;55.638;37.670;2023-05-16T10:54:42;24.30;1.00
34201;DHT22;20469;55.638;37.670;2023-05-16T10:57:32;23.60;1.00
34201;DHT22;20469;55.638;37.670;2023-05-16T11:00:00;23.10;1.00
34201;DHT22;20469;55.638;37.670;2023-05-16T11:02:40;22.30;1.00
34201;DHT22;20469;55.638;37.670;2023-05-16T11:05:12;22.60;1.00
34201;DHT22;20469;55.638;37.670;2023-05-16T11:07:43;21.50;1.00
34201;DHT22;20469;55.638;37.670;2023-05-16T11:10:27;21.30;1.00
34201;DHT22;20469;55.638;37.670;2023-05-16T11:13:02;21.90;1.00
34201;DHT22;20469;55.638;37.670;2023-05-16T11:15:33;22.70;1.00
34201;DHT22;20469;55.638;37.670;2023-05-16T11:20:34;23.50;1.00
34201;DHT22;20469;55.638;37.670;2023-05-16T11:23:21;23.40;1.00
34201;DHT22;20469;55.638;37.670;2023-05-16T11:25:57;23.20;1.00
34201;DHT22;20469;55.638;37.670;2023-05-16T11:28:25;23.70;1.00
34201;DHT22;20469;55.638;37.670;2023-05-16T11:31:11;23.60;1.00
34201;DHT22;20469;55.638;37.670;2023-05-16T11:33:39;24.00;1.00
34201;DHT22;20469;55.638;37.670;2023-05-16T11:36:07;24.40;1.00
34201;DHT22;20469;55.638;37.670;2023-05-16T11:38:38;24.50;1.00
34201;DHT22;20469;55.638;37.670;2023-05-16T11:41:09;24.00;1.00
34201;DHT22;20469;55.638;37.670;2023-05-16T11:43:42;23.40;1.00
34201;DHT22;20469;55.638;37.670;2023-05-16T11:46:11;25.10;1.00
34201;DHT22;20469;55.638;37.670;2023-05-16T11:48:39;23.80;1.00
34201;DHT22;20469;55.638;37.670;2023-05-16T11:53:54;23.00;1.00
34201;DHT22;20469;55.638;37.670;2023-05-16T11:56:22;23.10;1.00
34201;DHT22;20469;55.638;37.670;2023-05-16T11:58:49;23.40;1.00
34201;DHT22;20469;55.638;37.670;2023-05-16T12:01:17;23.20;1.00
34201;DHT22;20469;55.638;37.670;2023-05-16T12:03:44;24.10;1.00
34201;DHT22;20469;55.638;37.670;2023-05-16T12:09:10;24.60;1.00
34201;DHT22;20469;55.638;37.670;2023-05-16T12:11:38;23.80;1.00
34201;DHT22;20469;55.638;37.670;2023-05-16T12:14:06;24.90;1.00
34201;DHT22;20469;55.638;37.670;2023-05-16T12:16:36;25.00;1.00
34201;DHT22;20469;55.638;37.670;2023-05-16T12:19:07;23.50;1.00
34201;DHT22;20469;55.638;37.670;2023-05-16T12:21:54;23.30;1.00
34201;DHT22;20469;55.638;37.670;2023-05-16T12:24:28;24.70;1.00
34201;DHT22;20469;55.638;37.670;2023-05-16T12:26:56;22.80;1.00
34201;DHT22;20469;55.638;37.670;2023-05-16T12:29:24;24.00;1.00
34201;DHT22;20469;55.638;37.670;2023-05-16T12:31:52;23.20;1.00
34201;DHT22;20469;55.638;37.670;2023-05-16T12:34:19;23.50;1.00
34201;DHT22;20469;55.638;37.670;2023-05-16T12:36:51;22.70;1.00
34201;DHT22;20469;55.638;37.670;2023-05-16T12:39:19;23.10;1.00
34201;DHT22;20469;55.638;37.670;2023-05-16T12:41:47;23.30;1.00
34201;DHT22;20469;55.638;37.670;2023-05-16T12:44:18;24.20;1.00
34201;DHT22;20469;55.638;37.670;2023-05-16T12:46:48;24.00;1.00
34201;DHT22;20469;55.638;37.670;2023-05-16T12:49:22;23.90;1.00
34201;DHT22;20469;55.638;37.670;2023-05-16T12:51:51;22.70;1.00
34201;DHT22;20469;55.638;37.670;2023-05-16T12:54:18;22.90;1.00
34201;DHT22;20469;55.638;37.670;2023-05-16T12:56:46;23.10;1.00
34201;DHT22;20469;55.638;37.670;2023-05-16T12:59:14;22.20;1.00
34201;DHT22;20469;55.638;37.670;2023-05-16T13:01:41;21.80;1.00
34201;DHT22;20469;55.638;37.670;2023-05-16T13:04:08;22.40;1.00
34201;DHT22;20469;55.638;37.670;2023-05-16T13:06:40;23.10;1.00
34201;DHT22;20469;55.638;37.670;2023-05-16T13:09:24;22.50;1.00
34201;DHT22;20469;55.638;37.670;2023-05-16T13:11:56;23.30;1.00
34201;DHT22;20469;55.638;37.670;2023-05-16T13:14:23;24.10;1.00
34201;DHT22;20469;55.638;37.670;2023-05-16T13:16:51;23.80;1.00
34201;DHT22;20469;55.638;37.670;2023-05-16T13:19:18;22.60;1.00
34201;DHT22;20469;55.638;37.670;2023-05-16T13:21:45;23.30;1.00
34201;DHT22;20469;55.638;37.670;2023-05-16T13:24:13;23.50;1.00
34201;DHT22;20469;55.638;37.670;2023-05-16T13:26:40;24.20;1.00
34201;DHT22;20469;55.638;37.670;2023-05-16T13:29:07;23.00;1.00
34201;DHT22;20469;55.638;37.670;2023-05-16T13:31:37;23.00;1.00
34201;DHT22;20469;55.638;37.670;2023-05-16T13:34:04;23.90;1.00
34201;DHT22;20469;55.638;37.670;2023-05-16T13:36:31;23.40;1.00
34201;DHT22;20469;55.638;37.670;2023-05-16T13:39:19;23.70;1.00
34201;DHT22;20469;55.638;37.670;2023-05-16T13:41:46;23.30;1.00
34201;DHT22;20469;55.638;37.670;2023-05-16T13:44:15;24.60;1.00
34201;DHT22;20469;55.638;37.670;2023-05-16T13:46:43;24.20;1.00
34201;DHT22;20469;55.638;37.670;2023-05-16T13:49:11;24.30;1.00
34201;DHT22;20469;55.638;37.670;2023-05-16T13:51:38;24.90;1.00
34201;DHT22;20469;55.638;37.670;2023-05-16T13:54:06;25.00;1.00
34201;DHT22;20469;55.638;37.670;2023-05-16T13:56:33;26.30;1.00
34201;DHT22;20469;55.638;37.670;2023-05-16T13:59:00;26.50;1.00
34201;DHT22;20469;55.638;37.670;2023-05-16T14:01:33;23.30;1.00
34201;DHT22;20469;55.638;37.670;2023-05-16T14:04:00;24.90;1.00
34201;DHT22;20469;55.638;37.670;2023-05-16T14:06:28;24.50;1.00
34201;DHT22;20469;55.638;37.670;2023-05-16T14:08:55;26.40;1.00
34201;DHT22;20469;55.638;37.670;2023-05-16T14:11:23;24.90;1.00
34201;DHT22;20469;55.638;37.670;2023-05-16T14:13:56;25.50;1.00
34201;DHT22;20469;55.638;37.670;2023-05-16T14:16:23;25.10;1.00
34201;DHT22;20469;55.638;37.670;2023-05-16T14:18:53;25.40;1.00
34201;DHT22;20469;55.638;37.670;2023-05-16T14:21:21;25.30;1.00
34201;DHT22;20469;55.638;37.670;2023-05-16T14:23:48;23.20;1.00
34201;DHT22;20469;55.638;37.670;2023-05-16T14:26:15;21.80;1.00
34201;DHT22;20469;55.638;37.670;2023-05-16T14:28:44;21.50;1.00
34201;DHT22;20469;55.638;37.670;2023-05-16T14:31:11;21.30;1.00
34201;DHT22;20469;55.638;37.670;2023-05-16T14:33:38;21.10;1.00
34201;DHT22;20469;55.638;37.670;2023-05-16T14:36:07;21.10;1.00
34201;DHT22;20469;55.638;37.670;2023-05-16T14:38:34;21.80;1.00
34201;DHT22;20469;55.638;37.670;2023-05-16T14:41:02;21.70;1.00
34201;DHT22;20469;55.638;37.670;2023-05-16T14:43:29;21.90;1.00
34201;DHT22;20469;55.638;37.670;2023-05-16T14:45:57;21.50;1.00
34201;DHT22;20469;55.638;37.670;2023-05-16T14:48:24;21.10;1.00
34201;DHT22;20469;55.638;37.670;2023-05-16T14:50:51;20.90;1.00
34201;DHT22;20469;55.638;37.670;2023-05-16T14:53:19;20.80;1.00
34201;DHT22;20469;55.638;37.670;2023-05-16T14:55:47;20.80;1.00
34201;DHT22;20469;55.638;37.670;2023-05-16T14:58:15;20.90;1.00
34201;DHT22;20469;55.638;37.670;2023-05-16T15:00:42;20.70;1.00
34201;DHT22;20469;55.638;37.670;2023-05-16T15:03:10;20.70;1.00
34201;DHT22;20469;55.638;37.670;2023-05-16T15:05:41;20.60;1.00
34201;DHT22;20469;55.638;37.670;2023-05-16T15:08:08;20.70;1.00
34201;DHT22;20469;55.638;37.670;2023-05-16T15:10:36;20.30;1.00
34201;DHT22;20469;55.638;37.670;2023-05-16T15:13:03;20.30;1.00
34201;DHT22;20469;55.638;37.670;2023-05-16T15:15:30;20.40;1.00
34201;DHT22;20469;55.638;37.670;2023-05-16T15:17:58;20.40;1.00
34201;DHT22;20469;55.638;37.670;2023-05-16T15:20:26;20.50;1.00
34201;DHT22;20469;55.638;37.670;2023-05-16T15:22:54;20.40;1.00
34201;DHT22;20469;55.638;37.670;2023-05-16T15:25:21;20.30;1.00
34201;DHT22;20469;55.638;37.670;2023-05-16T15:27:49;20.30;1.00
34201;DHT22;20469;55.638;37.670;2023-05-16T15:30:16;20.40;1.00
34201;DHT22;20469;55.638;37.670;2023-05-16T15:32:43;20.50;1.00
34201;DHT22;20469;55.638;37.670;2023-05-16T15:35:10;20.50;1.00
34201;DHT22;20469;55.638;37.670;2023-05-16T15:37:38;20.50;1.00
34201;DHT22;20469;55.638;37.670;2023-05-16T15:40:06;20.50;1.00
34201;DHT22;20469;55.638;37.670;2023-05-16T15:42:35;20.30;1.00
34201;DHT22;20469;55.638;37.670;2023-05-16T15:45:02;20.10;1.00
34201;DHT22;20469;55.638;37.670;2023-05-16T15:47:30;20.10;1.00
34201;DHT22;20469;55.638;37.670;2023-05-16T15:49:57;20.10;1.00
34201;DHT22;20469;55.638;37.670;2023-05-16T15:52:25;20.00;1.00
34201;DHT22;20469;55.638;37.670;2023-05-16T15:54:52;20.00;1.00
34201;DHT22;20469;55.638;37.670;2023-05-16T15:57:19;20.00;1.00
34201;DHT22;20469;55.638;37.670;2023-05-16T15:59:46;19.90;1.00
34201;DHT22;20469;55.638;37.670;2023-05-16T16:02:14;19.80;1.00
34201;DHT22;20469;55.638;37.670;2023-05-16T16:04:41;19.70;1.00
34201;DHT22;20469;55.638;37.670;2023-05-16T16:07:09;19.70;1.00
34201;DHT22;20469;55.638;37.670;2023-05-16T16:09:37;19.80;1.00
34201;DHT22;20469;55.638;37.670;2023-05-16T16:12:05;19.90;1.00
34201;DHT22;20469;55.638;37.670;2023-05-16T16:14:32;20.00;1.00
34201;DHT22;20469;55.638;37.670;2023-05-16T16:17:00;20.00;1.00